sensor_id;sensor_type;location;lat;lon;timestamp;P1;durP1;ratioP1;P2;durP2;ratioP2
19887;SDS011;10106;51.332;12.336;2023-02-28T00:00:45;2.50;;;1.50;;
19887;SDS011;10106;51.332;12.336;2023-02-28T00:03:11;1.80;;;1.70;;
19887;SDS011;10106;51.332;12.336;2023-02-28T00:05:36;7.80;;;1.90;;
19887;SDS011;10106;51.332;12.336;2023-02-28T00:08:03;1.70;;;1.60;;
19887;SDS011;10106;51.332;12.336;2023-02-28T00:10:30;5.25;;;2.63;;
19887;SDS011;10106;51.332;12.336;2023-02-28T00:12:59;5.30;;;1.90;;
19887;SDS011;10106;51.332;12.336;2023-02-28T00:15:27;1.90;;;1.70;;
19887;SDS011;10106;51.332;12.336;2023-02-28T00:17:53;11.43;;;1.70;;
19887;SDS011;10106;51.332;12.336;2023-02-28T00:20:19;10.00;;;2.20;;
19887;SDS011;10106;51.332;12.336;2023-02-28T00:22:46;1.90;;;1.80;;
19887;SDS011;10106;51.332;12.336;2023-02-28T00:25:15;1.97;;;1.77;;
19887;SDS011;10106;51.332;12.336;2023-02-28T00:27:42;2.67;;;2.47;;
19887;SDS011;10106;51.332;12.336;2023-02-28T00:30:10;3.13;;;1.73;;
19887;SDS011;10106;51.332;12.336;2023-02-28T00:32:37;2.57;;;1.93;;
19887;SDS011;10106;51.332;12.336;2023-02-28T00:35:04;1.87;;;1.67;;
19887;SDS011;10106;51.332;12.336;2023-02-28T00:37:30;3.23;;;1.80;;
19887;SDS011;10106;51.332;12.336;2023-02-28T00:39:56;2.00;;;1.80;;
19887;SDS011;10106;51.332;12.336;2023-02-28T00:42:22;2.43;;;1.53;;
19887;SDS011;10106;51.332;12.336;2023-02-28T00:44:49;2.50;;;1.43;;
19887;SDS011;10106;51.332;12.336;2023-02-28T00:47:15;3.03;;;1.97;;
19887;SDS011;10106;51.332;12.336;2023-02-28T00:49:40;3.65;;;2.10;;
19887;SDS011;10106;51.332;12.336;2023-02-28T00:52:06;3.43;;;1.50;;
19887;SDS011;10106;51.332;12.336;2023-02-28T00:54:32;3.57;;;1.90;;
19887;SDS011;10106;51.332;12.336;2023-02-28T00:56:58;1.83;;;1.23;;
19887;SDS011;10106;51.332;12.336;2023-02-28T00:59:24;6.07;;;2.23;;
19887;SDS011;10106;51.332;12.336;2023-02-28T01:01:50;5.33;;;2.00;;
19887;SDS011;10106;51.332;12.336;2023-02-28T01:04:15;3.67;;;1.70;;
19887;SDS011;10106;51.332;12.336;2023-02-28T01:06:41;1.47;;;1.37;;
19887;SDS011;10106;51.332;12.336;2023-02-28T01:09:07;1.67;;;1.50;;
19887;SDS011;10106;51.332;12.336;2023-02-28T01:11:33;1.80;;;1.70;;
19887;SDS011;10106;51.332;12.336;2023-02-28T01:14:00;4.47;;;2.07;;
19887;SDS011;10106;51.332;12.336;2023-02-28T01:16:26;1.77;;;1.63;;
19887;SDS011;10106;51.332;12.336;2023-02-28T01:18:53;1.93;;;1.73;;
19887;SDS011;10106;51.332;12.336;2023-02-28T01:21:19;1.87;;;1.67;;
19887;SDS011;10106;51.332;12.336;2023-02-28T01:23:46;3.20;;;1.73;;
19887;SDS011;10106;51.332;12.336;2023-02-28T01:26:13;3.93;;;1.63;;
19887;SDS011;10106;51.332;12.336;2023-02-28T01:28:40;2.23;;;1.43;;
19887;SDS011;10106;51.332;12.336;2023-02-28T01:31:07;1.30;;;1.20;;
19887;SDS011;10106;51.332;12.336;2023-02-28T01:33:34;3.43;;;1.50;;
19887;SDS011;10106;51.332;12.336;2023-02-28T01:36:00;2.00;;;1.70;;
19887;SDS011;10106;51.332;12.336;2023-02-28T01:38:28;6.50;;;1.67;;
19887;SDS011;10106;51.332;12.336;2023-02-28T01:40:54;3.73;;;1.30;;
19887;SDS011;10106;51.332;12.336;2023-02-28T01:43:24;1.67;;;1.57;;
19887;SDS011;10106;51.332;12.336;2023-02-28T01:45:53;3.70;;;2.50;;
19887;SDS011;10106;51.332;12.336;2023-02-28T01:48:21;5.90;;;1.90;;
19887;SDS011;10106;51.332;12.336;2023-02-28T01:50:58;2.30;;;2.00;;
19887;SDS011;10106;51.332;12.336;2023-02-28T01:53:34;2.20;;;1.83;;
19887;SDS011;10106;51.332;12.336;2023-02-28T01:56:03;4.60;;;2.10;;
19887;SDS011;10106;51.332;12.336;2023-02-28T01:58:31;1.70;;;1.60;;
19887;SDS011;10106;51.332;12.336;2023-02-28T02:00:57;3.50;;;1.73;;
19887;SDS011;10106;51.332;12.336;2023-02-28T02:03:23;5.20;;;2.30;;
19887;SDS011;10106;51.332;12.336;2023-02-28T02:05:49;1.93;;;1.83;;
19887;SDS011;10106;51.332;12.336;2023-02-28T02:08:16;7.70;;;1.90;;
19887;SDS011;10106;51.332;12.336;2023-02-28T02:10:50;2.73;;;1.87;;
19887;SDS011;10106;51.332;12.336;2023-02-28T02:40:43;4.30;;;2.50;;
19887;SDS011;10106;51.332;12.336;2023-02-28T02:46:11;2.67;;;1.70;;
19887;SDS011;10106;51.332;12.336;2023-02-28T02:48:42;2.20;;;2.00;;
19887;SDS011;10106;51.332;12.336;2023-02-28T02:51:12;3.60;;;2.03;;
19887;SDS011;10106;51.332;12.336;2023-02-28T02:53:42;2.70;;;2.50;;
19887;SDS011;10106;51.332;12.336;2023-02-28T02:56:19;2.30;;;1.73;;
19887;SDS011;10106;51.332;12.336;2023-02-28T02:58:49;4.97;;;2.30;;
19887;SDS011;10106;51.332;12.336;2023-02-28T03:01:19;2.07;;;1.53;;
19887;SDS011;10106;51.332;12.336;2023-02-28T03:03:58;6.43;;;1.60;;
19887;SDS011;10106;51.332;12.336;2023-02-28T03:06:27;17.03;;;1.67;;
19887;SDS011;10106;51.332;12.336;2023-02-28T03:08:53;3.03;;;2.00;;
19887;SDS011;10106;51.332;12.336;2023-02-28T03:11:18;2.50;;;2.03;;
19887;SDS011;10106;51.332;12.336;2023-02-28T03:19:23;3.03;;;1.77;;
19887;SDS011;10106;51.332;12.336;2023-02-28T03:30:33;2.70;;;2.13;;
19887;SDS011;10106;51.332;12.336;2023-02-28T03:33:08;2.30;;;1.90;;
19887;SDS011;10106;51.332;12.336;2023-02-28T03:35:55;2.10;;;1.83;;
19887;SDS011;10106;51.332;12.336;2023-02-28T03:38:38;5.10;;;2.03;;
19887;SDS011;10106;51.332;12.336;2023-02-28T03:41:13;1.43;;;1.33;;
19887;SDS011;10106;51.332;12.336;2023-02-28T03:43:43;8.10;;;1.63;;
19887;SDS011;10106;51.332;12.336;2023-02-28T03:46:14;2.50;;;1.63;;
19887;SDS011;10106;51.332;12.336;2023-02-28T03:49:32;8.07;;;2.17;;
19887;SDS011;10106;51.332;12.336;2023-02-28T03:51:43;2.30;;;1.70;;
19887;SDS011;10106;51.332;12.336;2023-02-28T03:54:13;2.70;;;2.20;;
19887;SDS011;10106;51.332;12.336;2023-02-28T03:56:45;2.87;;;1.60;;
19887;SDS011;10106;51.332;12.336;2023-02-28T03:59:31;3.77;;;1.77;;
19887;SDS011;10106;51.332;12.336;2023-02-28T04:02:01;1.93;;;1.33;;
19887;SDS011;10106;51.332;12.336;2023-02-28T04:04:27;3.90;;;1.90;;
19887;SDS011;10106;51.332;12.336;2023-02-28T04:06:53;2.40;;;1.70;;
19887;SDS011;10106;51.332;12.336;2023-02-28T04:09:27;2.43;;;1.73;;
19887;SDS011;10106;51.332;12.336;2023-02-28T04:11:53;1.97;;;1.47;;
19887;SDS011;10106;51.332;12.336;2023-02-28T04:14:20;2.00;;;1.33;;
19887;SDS011;10106;51.332;12.336;2023-02-28T04:16:46;2.87;;;1.97;;
19887;SDS011;10106;51.332;12.336;2023-02-28T04:19:12;3.33;;;2.10;;
19887;SDS011;10106;51.332;12.336;2023-02-28T04:21:43;4.20;;;1.60;;
19887;SDS011;10106;51.332;12.336;2023-02-28T04:24:11;5.23;;;2.60;;
19887;SDS011;10106;51.332;12.336;2023-02-28T04:26:39;3.30;;;1.23;;
19887;SDS011;10106;51.332;12.336;2023-02-28T04:29:08;3.07;;;2.17;;
19887;SDS011;10106;51.332;12.336;2023-02-28T04:31:34;4.37;;;2.10;;
19887;SDS011;10106;51.332;12.336;2023-02-28T04:34:00;2.37;;;2.10;;
19887;SDS011;10106;51.332;12.336;2023-02-28T04:36:26;2.87;;;2.13;;
19887;SDS011;10106;51.332;12.336;2023-02-28T04:38:52;2.37;;;2.17;;
19887;SDS011;10106;51.332;12.336;2023-02-28T04:41:18;2.50;;;2.30;;
19887;SDS011;10106;51.332;12.336;2023-02-28T04:43:45;2.80;;;1.70;;
19887;SDS011;10106;51.332;12.336;2023-02-28T04:46:10;2.60;;;2.40;;
19887;SDS011;10106;51.332;12.336;2023-02-28T04:48:37;6.70;;;1.43;;
19887;SDS011;10106;51.332;12.336;2023-02-28T04:51:05;3.93;;;2.00;;
19887;SDS011;10106;51.332;12.336;2023-02-28T04:53:33;3.00;;;1.93;;
19887;SDS011;10106;51.332;12.336;2023-02-28T04:55:59;7.20;;;2.10;;
19887;SDS011;10106;51.332;12.336;2023-02-28T04:58:25;1.40;;;1.30;;
19887;SDS011;10106;51.332;12.336;2023-02-28T05:00:51;1.73;;;1.63;;
19887;SDS011;10106;51.332;12.336;2023-02-28T05:03:18;2.77;;;2.07;;
19887;SDS011;10106;51.332;12.336;2023-02-28T05:05:45;1.57;;;1.37;;
19887;SDS011;10106;51.332;12.336;2023-02-28T05:08:11;2.27;;;1.60;;
19887;SDS011;10106;51.332;12.336;2023-02-28T05:10:37;2.40;;;1.47;;
19887;SDS011;10106;51.332;12.336;2023-02-28T05:13:03;2.10;;;1.60;;
19887;SDS011;10106;51.332;12.336;2023-02-28T05:15:29;2.83;;;1.73;;
19887;SDS011;10106;51.332;12.336;2023-02-28T05:17:54;3.10;;;1.87;;
19887;SDS011;10106;51.332;12.336;2023-02-28T05:20:20;2.83;;;2.30;;
19887;SDS011;10106;51.332;12.336;2023-02-28T05:22:46;6.40;;;2.63;;
19887;SDS011;10106;51.332;12.336;2023-02-28T05:25:13;2.80;;;2.37;;
19887;SDS011;10106;51.332;12.336;2023-02-28T05:27:46;5.03;;;3.30;;
19887;SDS011;10106;51.332;12.336;2023-02-28T05:30:12;4.80;;;1.60;;
19887;SDS011;10106;51.332;12.336;2023-02-28T05:32:38;3.43;;;2.03;;
19887;SDS011;10106;51.332;12.336;2023-02-28T05:35:07;3.97;;;2.10;;
19887;SDS011;10106;51.332;12.336;2023-02-28T05:37:34;1.40;;;1.30;;
19887;SDS011;10106;51.332;12.336;2023-02-28T05:40:00;3.60;;;1.83;;
19887;SDS011;10106;51.332;12.336;2023-02-28T05:42:26;3.60;;;2.40;;
19887;SDS011;10106;51.332;12.336;2023-02-28T05:44:52;3.63;;;2.20;;
19887;SDS011;10106;51.332;12.336;2023-02-28T05:47:18;2.30;;;1.60;;
19887;SDS011;10106;51.332;12.336;2023-02-28T05:49:43;2.07;;;1.87;;
19887;SDS011;10106;51.332;12.336;2023-02-28T05:52:09;3.50;;;2.83;;
19887;SDS011;10106;51.332;12.336;2023-02-28T05:54:35;2.03;;;1.90;;
19887;SDS011;10106;51.332;12.336;2023-02-28T05:57:01;4.77;;;2.60;;
19887;SDS011;10106;51.332;12.336;2023-02-28T05:59:27;3.30;;;2.57;;
19887;SDS011;10106;51.332;12.336;2023-02-28T06:07:03;2.30;;;2.00;;
19887;SDS011;10106;51.332;12.336;2023-02-28T06:09:29;3.67;;;1.73;;
19887;SDS011;10106;51.332;12.336;2023-02-28T06:11:54;2.03;;;1.80;;
19887;SDS011;10106;51.332;12.336;2023-02-28T06:14:23;5.40;;;2.23;;
19887;SDS011;10106;51.332;12.336;2023-02-28T06:16:48;1.83;;;1.73;;
19887;SDS011;10106;51.332;12.336;2023-02-28T06:19:14;8.80;;;2.30;;
19887;SDS011;10106;51.332;12.336;2023-02-28T06:21:40;2.30;;;2.10;;
19887;SDS011;10106;51.332;12.336;2023-02-28T06:24:06;3.70;;;2.20;;
19887;SDS011;10106;51.332;12.336;2023-02-28T06:26:32;6.50;;;2.33;;
19887;SDS011;10106;51.332;12.336;2023-02-28T06:28:58;3.23;;;1.80;;
19887;SDS011;10106;51.332;12.336;2023-02-28T06:31:25;5.47;;;1.97;;
19887;SDS011;10106;51.332;12.336;2023-02-28T06:33:53;3.83;;;2.67;;
19887;SDS011;10106;51.332;12.336;2023-02-28T06:36:19;3.67;;;2.43;;
19887;SDS011;10106;51.332;12.336;2023-02-28T06:38:45;4.17;;;2.57;;
19887;SDS011;10106;51.332;12.336;2023-02-28T06:41:16;4.10;;;2.37;;
19887;SDS011;10106;51.332;12.336;2023-02-28T06:43:42;3.13;;;2.30;;
19887;SDS011;10106;51.332;12.336;2023-02-28T06:46:10;6.20;;;2.80;;
19887;SDS011;10106;51.332;12.336;2023-02-28T06:48:38;4.20;;;2.20;;
19887;SDS011;10106;51.332;12.336;2023-02-28T06:51:15;2.53;;;2.33;;
19887;SDS011;10106;51.332;12.336;2023-02-28T06:53:41;4.47;;;3.07;;
19887;SDS011;10106;51.332;12.336;2023-02-28T06:56:08;8.97;;;3.63;;
19887;SDS011;10106;51.332;12.336;2023-02-28T06:58:36;3.60;;;2.33;;
19887;SDS011;10106;51.332;12.336;2023-02-28T07:01:03;4.90;;;2.80;;
19887;SDS011;10106;51.332;12.336;2023-02-28T07:03:29;6.63;;;3.00;;
19887;SDS011;10106;51.332;12.336;2023-02-28T07:05:55;5.43;;;2.60;;
19887;SDS011;10106;51.332;12.336;2023-02-28T07:08:22;5.30;;;3.17;;
19887;SDS011;10106;51.332;12.336;2023-02-28T07:10:51;4.10;;;1.97;;
19887;SDS011;10106;51.332;12.336;2023-02-28T07:13:18;2.10;;;1.93;;
19887;SDS011;10106;51.332;12.336;2023-02-28T07:15:43;4.63;;;2.70;;
19887;SDS011;10106;51.332;12.336;2023-02-28T07:18:09;4.00;;;2.20;;
19887;SDS011;10106;51.332;12.336;2023-02-28T07:20:35;5.83;;;2.90;;
19887;SDS011;10106;51.332;12.336;2023-02-28T07:23:00;3.63;;;2.10;;
19887;SDS011;10106;51.332;12.336;2023-02-28T07:25:27;4.63;;;2.80;;
19887;SDS011;10106;51.332;12.336;2023-02-28T07:27:53;7.70;;;3.70;;
19887;SDS011;10106;51.332;12.336;2023-02-28T07:30:20;4.70;;;2.37;;
19887;SDS011;10106;51.332;12.336;2023-02-28T07:32:45;5.03;;;3.53;;
19887;SDS011;10106;51.332;12.336;2023-02-28T07:35:11;5.73;;;3.20;;
19887;SDS011;10106;51.332;12.336;2023-02-28T07:37:38;6.90;;;3.73;;
19887;SDS011;10106;51.332;12.336;2023-02-28T07:40:04;4.10;;;3.60;;
19887;SDS011;10106;51.332;12.336;2023-02-28T07:42:33;9.63;;;4.70;;
19887;SDS011;10106;51.332;12.336;2023-02-28T07:45:00;6.90;;;3.70;;
19887;SDS011;10106;51.332;12.336;2023-02-28T07:47:26;6.30;;;4.20;;
19887;SDS011;10106;51.332;12.336;2023-02-28T07:49:53;7.30;;;3.87;;
19887;SDS011;10106;51.332;12.336;2023-02-28T07:52:19;8.50;;;3.80;;
19887;SDS011;10106;51.332;12.336;2023-02-28T07:54:45;3.97;;;2.80;;
19887;SDS011;10106;51.332;12.336;2023-02-28T07:57:10;5.50;;;3.50;;
19887;SDS011;10106;51.332;12.336;2023-02-28T07:59:36;6.93;;;4.10;;
19887;SDS011;10106;51.332;12.336;2023-02-28T08:02:01;4.57;;;3.30;;
19887;SDS011;10106;51.332;12.336;2023-02-28T08:04:27;8.60;;;3.50;;
19887;SDS011;10106;51.332;12.336;2023-02-28T08:06:56;6.70;;;4.33;;
19887;SDS011;10106;51.332;12.336;2023-02-28T08:09:22;6.53;;;3.67;;
19887;SDS011;10106;51.332;12.336;2023-02-28T08:11:47;10.23;;;3.23;;
19887;SDS011;10106;51.332;12.336;2023-02-28T08:14:13;6.90;;;4.00;;
19887;SDS011;10106;51.332;12.336;2023-02-28T08:16:39;6.60;;;3.43;;
19887;SDS011;10106;51.332;12.336;2023-02-28T08:19:04;4.70;;;3.60;;
19887;SDS011;10106;51.332;12.336;2023-02-28T08:21:30;5.03;;;3.00;;
19887;SDS011;10106;51.332;12.336;2023-02-28T08:23:56;6.03;;;3.37;;
19887;SDS011;10106;51.332;12.336;2023-02-28T08:26:22;6.13;;;3.03;;
19887;SDS011;10106;51.332;12.336;2023-02-28T08:28:48;3.97;;;2.87;;
19887;SDS011;10106;51.332;12.336;2023-02-28T08:31:15;5.50;;;3.43;;
19887;SDS011;10106;51.332;12.336;2023-02-28T08:33:41;4.87;;;4.23;;
19887;SDS011;10106;51.332;12.336;2023-02-28T08:36:08;5.80;;;2.93;;
19887;SDS011;10106;51.332;12.336;2023-02-28T08:38:34;10.00;;;3.17;;
19887;SDS011;10106;51.332;12.336;2023-02-28T08:41:01;5.47;;;3.30;;
19887;SDS011;10106;51.332;12.336;2023-02-28T08:43:30;4.20;;;2.63;;
19887;SDS011;10106;51.332;12.336;2023-02-28T08:45:56;6.20;;;3.27;;
19887;SDS011;10106;51.332;12.336;2023-02-28T08:48:26;5.07;;;3.50;;
19887;SDS011;10106;51.332;12.336;2023-02-28T08:53:29;5.33;;;3.40;;
19887;SDS011;10106;51.332;12.336;2023-02-28T08:55:59;3.97;;;2.57;;
19887;SDS011;10106;51.332;12.336;2023-02-28T08:58:26;4.30;;;2.27;;
19887;SDS011;10106;51.332;12.336;2023-02-28T09:00:52;3.70;;;2.23;;
19887;SDS011;10106;51.332;12.336;2023-02-28T09:03:19;3.10;;;2.57;;
19887;SDS011;10106;51.332;12.336;2023-02-28T09:05:55;3.13;;;2.40;;
19887;SDS011;10106;51.332;12.336;2023-02-28T09:08:26;3.87;;;1.87;;
19887;SDS011;10106;51.332;12.336;2023-02-28T09:10:53;5.10;;;2.40;;
19887;SDS011;10106;51.332;12.336;2023-02-28T09:13:19;4.07;;;2.87;;
19887;SDS011;10106;51.332;12.336;2023-02-28T09:15:45;3.73;;;2.40;;
19887;SDS011;10106;51.332;12.336;2023-02-28T09:18:11;2.53;;;1.80;;
19887;SDS011;10106;51.332;12.336;2023-02-28T09:20:38;4.10;;;3.00;;
19887;SDS011;10106;51.332;12.336;2023-02-28T09:23:05;3.60;;;2.90;;
19887;SDS011;10106;51.332;12.336;2023-02-28T09:25:31;2.90;;;2.37;;
19887;SDS011;10106;51.332;12.336;2023-02-28T09:27:57;2.77;;;2.53;;
19887;SDS011;10106;51.332;12.336;2023-02-28T09:30:22;3.63;;;3.03;;
19887;SDS011;10106;51.332;12.336;2023-02-28T09:32:48;3.47;;;2.23;;
19887;SDS011;10106;51.332;12.336;2023-02-28T09:35:21;3.50;;;2.13;;
19887;SDS011;10106;51.332;12.336;2023-02-28T09:37:48;3.00;;;2.30;;
19887;SDS011;10106;51.332;12.336;2023-02-28T09:40:16;5.10;;;3.57;;
19887;SDS011;10106;51.332;12.336;2023-02-28T09:42:45;6.47;;;2.60;;
19887;SDS011;10106;51.332;12.336;2023-02-28T09:45:26;10.33;;;2.20;;
19887;SDS011;10106;51.332;12.336;2023-02-28T09:47:53;2.63;;;2.43;;
19887;SDS011;10106;51.332;12.336;2023-02-28T09:50:29;4.30;;;3.00;;
19887;SDS011;10106;51.332;12.336;2023-02-28T09:53:06;2.93;;;2.20;;
19887;SDS011;10106;51.332;12.336;2023-02-28T09:55:43;3.90;;;2.30;;
19887;SDS011;10106;51.332;12.336;2023-02-28T09:58:35;3.77;;;2.73;;
19887;SDS011;10106;51.332;12.336;2023-02-28T10:01:06;7.93;;;3.43;;
19887;SDS011;10106;51.332;12.336;2023-02-28T10:03:43;4.53;;;2.53;;
19887;SDS011;10106;51.332;12.336;2023-02-28T10:06:20;4.67;;;2.47;;
19887;SDS011;10106;51.332;12.336;2023-02-28T10:11:29;2.53;;;2.33;;
19887;SDS011;10106;51.332;12.336;2023-02-28T10:14:02;4.13;;;3.20;;
19887;SDS011;10106;51.332;12.336;2023-02-28T10:16:41;2.90;;;2.40;;
19887;SDS011;10106;51.332;12.336;2023-02-28T10:19:29;3.47;;;2.17;;
19887;SDS011;10106;51.332;12.336;2023-02-28T10:22:01;3.40;;;2.40;;
19887;SDS011;10106;51.332;12.336;2023-02-28T10:24:35;3.17;;;2.03;;
19887;SDS011;10106;51.332;12.336;2023-02-28T10:27:16;4.63;;;1.90;;
19887;SDS011;10106;51.332;12.336;2023-02-28T10:29:44;8.50;;;2.57;;
19887;SDS011;10106;51.332;12.336;2023-02-28T10:37:40;2.87;;;2.20;;
19887;SDS011;10106;51.332;12.336;2023-02-28T10:40:18;3.63;;;2.83;;
19887;SDS011;10106;51.332;12.336;2023-02-28T10:42:56;3.23;;;1.83;;
19887;SDS011;10106;51.332;12.336;2023-02-28T10:45:52;2.00;;;1.90;;
19887;SDS011;10106;51.332;12.336;2023-02-28T10:58:25;4.27;;;2.43;;
19887;SDS011;10106;51.332;12.336;2023-02-28T11:00:54;4.17;;;2.70;;
19887;SDS011;10106;51.332;12.336;2023-02-28T11:03:24;5.17;;;2.23;;
19887;SDS011;10106;51.332;12.336;2023-02-28T11:05:56;4.40;;;2.17;;
19887;SDS011;10106;51.332;12.336;2023-02-28T11:08:22;3.70;;;2.63;;
19887;SDS011;10106;51.332;12.336;2023-02-28T11:10:58;3.03;;;1.43;;
19887;SDS011;10106;51.332;12.336;2023-02-28T11:13:33;2.70;;;1.93;;
19887;SDS011;10106;51.332;12.336;2023-02-28T11:16:06;4.77;;;2.33;;
19887;SDS011;10106;51.332;12.336;2023-02-28T11:21:06;2.60;;;2.03;;
19887;SDS011;10106;51.332;12.336;2023-02-28T11:23:35;3.23;;;2.80;;
19887;SDS011;10106;51.332;12.336;2023-02-28T11:26:04;5.77;;;2.80;;
19887;SDS011;10106;51.332;12.336;2023-02-28T11:28:35;2.93;;;2.40;;
19887;SDS011;10106;51.332;12.336;2023-02-28T11:36:23;3.70;;;2.07;;
19887;SDS011;10106;51.332;12.336;2023-02-28T11:38:55;5.40;;;2.30;;
19887;SDS011;10106;51.332;12.336;2023-02-28T11:44:19;8.93;;;2.10;;
19887;SDS011;10106;51.332;12.336;2023-02-28T11:46:50;10.23;;;2.83;;
19887;SDS011;10106;51.332;12.336;2023-02-28T11:58:17;3.70;;;2.70;;
19887;SDS011;10106;51.332;12.336;2023-02-28T12:06:23;4.27;;;2.60;;
19887;SDS011;10106;51.332;12.336;2023-02-28T12:15:11;4.10;;;2.87;;
19887;SDS011;10106;51.332;12.336;2023-02-28T12:22:54;2.47;;;2.20;;
19887;SDS011;10106;51.332;12.336;2023-02-28T12:28:37;4.03;;;2.50;;
19887;SDS011;10106;51.332;12.336;2023-02-28T12:31:11;5.70;;;2.90;;
19887;SDS011;10106;51.332;12.336;2023-02-28T12:33:46;4.63;;;2.83;;
19887;SDS011;10106;51.332;12.336;2023-02-28T12:36:17;3.00;;;2.70;;
19887;SDS011;10106;51.332;12.336;2023-02-28T12:41:56;7.80;;;3.13;;
19887;SDS011;10106;51.332;12.336;2023-02-28T12:44:46;7.07;;;3.57;;
19887;SDS011;10106;51.332;12.336;2023-02-28T12:47:19;6.27;;;4.00;;
19887;SDS011;10106;51.332;12.336;2023-02-28T12:49:46;4.40;;;3.60;;
19887;SDS011;10106;51.332;12.336;2023-02-28T12:52:15;5.60;;;3.63;;
19887;SDS011;10106;51.332;12.336;2023-02-28T12:54:45;5.70;;;3.50;;
19887;SDS011;10106;51.332;12.336;2023-02-28T13:00:23;5.03;;;3.57;;
19887;SDS011;10106;51.332;12.336;2023-02-28T13:10:57;7.40;;;3.97;;
19887;SDS011;10106;51.332;12.336;2023-02-28T13:13:24;6.70;;;4.13;;
19887;SDS011;10106;51.332;12.336;2023-02-28T13:18:28;5.70;;;3.83;;
19887;SDS011;10106;51.332;12.336;2023-02-28T13:20:57;6.80;;;3.80;;
19887;SDS011;10106;51.332;12.336;2023-02-28T13:26:05;4.17;;;2.67;;
19887;SDS011;10106;51.332;12.336;2023-02-28T13:31:29;6.30;;;4.40;;
19887;SDS011;10106;51.332;12.336;2023-02-28T13:36:30;7.33;;;3.70;;
19887;SDS011;10106;51.332;12.336;2023-02-28T13:39:11;5.57;;;3.77;;
19887;SDS011;10106;51.332;12.336;2023-02-28T13:50:21;3.33;;;3.03;;
19887;SDS011;10106;51.332;12.336;2023-02-28T13:55:37;4.70;;;3.37;;
19887;SDS011;10106;51.332;12.336;2023-02-28T14:06:52;4.30;;;3.00;;
19887;SDS011;10106;51.332;12.336;2023-02-28T14:32:18;6.20;;;3.97;;
19887;SDS011;10106;51.332;12.336;2023-02-28T14:35:17;9.03;;;4.03;;
19887;SDS011;10106;51.332;12.336;2023-02-28T14:37:52;7.00;;;3.73;;
19887;SDS011;10106;51.332;12.336;2023-02-28T14:40:21;6.17;;;4.00;;
19887;SDS011;10106;51.332;12.336;2023-02-28T14:42:48;9.97;;;4.50;;
19887;SDS011;10106;51.332;12.336;2023-02-28T14:45:21;8.20;;;3.80;;
19887;SDS011;10106;51.332;12.336;2023-02-28T14:47:49;8.83;;;3.60;;
19887;SDS011;10106;51.332;12.336;2023-02-28T14:50:28;4.03;;;3.57;;
19887;SDS011;10106;51.332;12.336;2023-02-28T14:52:56;9.30;;;4.70;;
19887;SDS011;10106;51.332;12.336;2023-02-28T14:55:29;6.43;;;4.57;;
19887;SDS011;10106;51.332;12.336;2023-02-28T14:57:58;9.17;;;4.60;;
19887;SDS011;10106;51.332;12.336;2023-02-28T15:00:29;8.60;;;4.57;;
19887;SDS011;10106;51.332;12.336;2023-02-28T15:02:56;11.57;;;3.57;;
19887;SDS011;10106;51.332;12.336;2023-02-28T15:07:49;7.87;;;4.73;;
19887;SDS011;10106;51.332;12.336;2023-02-28T15:10:29;7.30;;;3.77;;
19887;SDS011;10106;51.332;12.336;2023-02-28T15:12:57;5.67;;;3.83;;
19887;SDS011;10106;51.332;12.336;2023-02-28T15:16:09;5.67;;;4.33;;
19887;SDS011;10106;51.332;12.336;2023-02-28T15:20:54;7.50;;;3.87;;
19887;SDS011;10106;51.332;12.336;2023-02-28T15:23:22;6.37;;;3.83;;
19887;SDS011;10106;51.332;12.336;2023-02-28T15:25:48;7.30;;;4.30;;
19887;SDS011;10106;51.332;12.336;2023-02-28T15:28:16;7.50;;;4.60;;
19887;SDS011;10106;51.332;12.336;2023-02-28T15:30:50;7.17;;;3.97;;
19887;SDS011;10106;51.332;12.336;2023-02-28T15:33:25;7.80;;;4.00;;
19887;SDS011;10106;51.332;12.336;2023-02-28T15:36:14;5.83;;;4.23;;
19887;SDS011;10106;51.332;12.336;2023-02-28T15:38:40;9.33;;;4.23;;
19887;SDS011;10106;51.332;12.336;2023-02-28T15:41:21;8.10;;;4.73;;
19887;SDS011;10106;51.332;12.336;2023-02-28T15:46:40;6.40;;;4.10;;
19887;SDS011;10106;51.332;12.336;2023-02-28T15:49:17;7.57;;;3.37;;
19887;SDS011;10106;51.332;12.336;2023-02-28T15:51:45;8.00;;;3.43;;
19887;SDS011;10106;51.332;12.336;2023-02-28T15:54:21;5.27;;;3.73;;
19887;SDS011;10106;51.332;12.336;2023-02-28T15:56:52;6.30;;;4.07;;
19887;SDS011;10106;51.332;12.336;2023-02-28T15:59:27;10.27;;;5.03;;
19887;SDS011;10106;51.332;12.336;2023-02-28T16:02:14;6.67;;;3.30;;
19887;SDS011;10106;51.332;12.336;2023-02-28T16:07:37;12.10;;;5.27;;
19887;SDS011;10106;51.332;12.336;2023-02-28T16:10:04;8.70;;;3.30;;
19887;SDS011;10106;51.332;12.336;2023-02-28T16:12:32;11.30;;;5.30;;
19887;SDS011;10106;51.332;12.336;2023-02-28T16:15:00;4.70;;;3.90;;
19887;SDS011;10106;51.332;12.336;2023-02-28T16:17:34;8.10;;;4.23;;
19887;SDS011;10106;51.332;12.336;2023-02-28T16:20:15;7.53;;;3.73;;
19887;SDS011;10106;51.332;12.336;2023-02-28T16:22:43;5.67;;;3.60;;
19887;SDS011;10106;51.332;12.336;2023-02-28T16:25:14;8.03;;;4.13;;
19887;SDS011;10106;51.332;12.336;2023-02-28T16:27:41;6.40;;;3.77;;
19887;SDS011;10106;51.332;12.336;2023-02-28T16:30:19;4.73;;;2.90;;
19887;SDS011;10106;51.332;12.336;2023-02-28T16:32:47;9.10;;;4.60;;
19887;SDS011;10106;51.332;12.336;2023-02-28T16:35:13;7.97;;;3.63;;
19887;SDS011;10106;51.332;12.336;2023-02-28T16:37:39;4.70;;;4.30;;
19887;SDS011;10106;51.332;12.336;2023-02-28T16:40:06;8.47;;;4.10;;
19887;SDS011;10106;51.332;12.336;2023-02-28T16:42:34;6.00;;;3.90;;
19887;SDS011;10106;51.332;12.336;2023-02-28T16:45:02;5.07;;;4.17;;
19887;SDS011;10106;51.332;12.336;2023-02-28T16:47:28;7.87;;;4.40;;
19887;SDS011;10106;51.332;12.336;2023-02-28T16:49:56;6.40;;;4.37;;
19887;SDS011;10106;51.332;12.336;2023-02-28T16:52:22;6.97;;;3.87;;
19887;SDS011;10106;51.332;12.336;2023-02-28T16:54:48;7.97;;;4.70;;
19887;SDS011;10106;51.332;12.336;2023-02-28T16:57:18;8.80;;;4.17;;
19887;SDS011;10106;51.332;12.336;2023-02-28T16:59:47;9.13;;;4.33;;
19887;SDS011;10106;51.332;12.336;2023-02-28T17:02:14;11.00;;;4.43;;
19887;SDS011;10106;51.332;12.336;2023-02-28T17:04:41;6.83;;;5.23;;
19887;SDS011;10106;51.332;12.336;2023-02-28T17:07:11;6.77;;;4.83;;
19887;SDS011;10106;51.332;12.336;2023-02-28T17:09:39;18.30;;;5.47;;
19887;SDS011;10106;51.332;12.336;2023-02-28T17:12:05;13.73;;;5.10;;
19887;SDS011;10106;51.332;12.336;2023-02-28T17:14:31;8.33;;;4.23;;
19887;SDS011;10106;51.332;12.336;2023-02-28T17:16:57;9.30;;;4.33;;
19887;SDS011;10106;51.332;12.336;2023-02-28T17:19:22;8.23;;;4.90;;
19887;SDS011;10106;51.332;12.336;2023-02-28T17:21:48;36.53;;;12.73;;
19887;SDS011;10106;51.332;12.336;2023-02-28T17:24:14;23.07;;;9.50;;
19887;SDS011;10106;51.332;12.336;2023-02-28T17:26:46;7.40;;;4.07;;
19887;SDS011;10106;51.332;12.336;2023-02-28T17:29:16;10.03;;;7.00;;
19887;SDS011;10106;51.332;12.336;2023-02-28T17:31:43;7.30;;;5.47;;
19887;SDS011;10106;51.332;12.336;2023-02-28T17:34:10;11.20;;;6.03;;
19887;SDS011;10106;51.332;12.336;2023-02-28T17:36:36;8.93;;;4.87;;
19887;SDS011;10106;51.332;12.336;2023-02-28T17:39:04;11.13;;;5.40;;
19887;SDS011;10106;51.332;12.336;2023-02-28T17:41:36;13.20;;;5.53;;
19887;SDS011;10106;51.332;12.336;2023-02-28T17:44:01;7.43;;;3.83;;
19887;SDS011;10106;51.332;12.336;2023-02-28T17:46:27;12.17;;;4.77;;
19887;SDS011;10106;51.332;12.336;2023-02-28T17:48:53;14.03;;;6.03;;
19887;SDS011;10106;51.332;12.336;2023-02-28T17:51:20;14.00;;;4.80;;
19887;SDS011;10106;51.332;12.336;2023-02-28T17:53:47;11.30;;;5.13;;